Time;durP1;ratioP1;P1;durP2;ratioP2;P2;SDS_P1;SDS_P2;PMS_P1;PMS_P2;Temp;Humidity;BMP_temperature;BMP_pressure;BME280_temperature;BME280_humidity;BME280_pressure;Samples;Min_cycle;Max_cycle;Signal;HPM_P1;HPM_P2
2022/06/29 00:02:20;;;;;;;18.85;7.45;;;;;;;16.24;100.00;101441.72;5052453;28;20021;-62
2022/06/29 00:04:45;;;;;;;18.80;7.65;;;;;;;16.16;100.00;101438.25;5052599;28;20025;-62
2022/06/29 00:07:11;;;;;;;19.02;7.85;;;;;;;16.04;100.00;101436.56;5052726;28;20432;-62
2022/06/29 00:09:36;;;;;;;18.13;7.55;;;;;;;15.94;100.00;101432.22;5052773;28;20368;-62
2022/06/29 00:12:01;;;;;;;18.70;7.85;;;;;;;15.91;100.00;101427.78;5052396;28;20033;-62
2022/06/29 00:14:27;;;;;;;19.33;7.75;;;;;;;15.88;100.00;101435.81;5052181;28;20029;-62
2022/06/29 00:16:52;;;;;;;18.25;8.07;;;;;;;15.73;100.00;101435.91;5052376;28;20025;-62
2022/06/29 00:19:17;;;;;;;18.83;7.97;;;;;;;15.70;100.00;101431.50;5052370;28;20025;-62
2022/06/29 00:21:43;;;;;;;19.10;8.40;;;;;;;15.67;100.00;101426.19;5052577;28;20052;-62
2022/06/29 00:24:08;;;;;;;18.80;8.20;;;;;;;15.66;100.00;101421.75;5052200;28;20025;-62
2022/06/29 00:26:33;;;;;;;18.55;7.85;;;;;;;15.56;100.00;101426.25;5052190;28;20113;-62
2022/06/29 00:28:59;;;;;;;18.80;8.18;;;;;;;15.53;100.00;101420.94;5052399;28;20155;-62
2022/06/29 00:31:24;;;;;;;18.52;8.10;;;;;;;15.43;100.00;101419.25;5052105;28;20025;-62
2022/06/29 00:33:49;;;;;;;18.55;8.20;;;;;;;15.43;100.00;101413.91;5051833;28;20026;-63
2022/06/29 00:36:15;;;;;;;18.98;8.40;;;;;;;15.44;100.00;101424.56;5052463;28;20487;-62
2022/06/29 00:38:40;;;;;;;18.58;8.52;;;;;;;15.33;100.00;101418.41;5052138;28;20025;-62
2022/06/29 00:41:05;;;;;;;20.05;8.35;;;;;;;15.25;100.00;101412.28;5052321;28;20021;-62
2022/06/29 00:43:42;;;;;;;18.83;8.38;;;;;;;15.29;100.00;101416.66;5052181;28;20044;-62
2022/06/29 00:46:07;;;;;;;18.45;8.55;;;;;;;15.25;100.00;101404.28;5048750;28;20152;-62
2022/06/29 00:48:33;;;;;;;19.10;8.40;;;;;;;15.18;100.00;101408.75;5051890;28;20479;-62
2022/06/29 00:51:02;;;;;;;19.33;8.82;;;;;;;15.09;100.00;101407.03;5053238;28;20045;-67
2022/06/29 00:53:32;;;;;;;19.50;8.57;;;;;;;15.02;100.00;101399.09;5055807;28;20021;-67
2022/06/29 00:56:01;;;;;;;19.35;8.50;;;;;;;15.01;100.00;101405.28;5055898;28;20036;-66
2022/06/29 00:58:27;;;;;;;20.52;8.55;;;;;;;14.96;100.00;101397.34;5055935;28;20490;-64
2022/06/29 01:00:53;;;;;;;19.42;8.98;;;;;;;14.84;100.00;101398.28;5055918;28;20025;-64
2022/06/29 01:03:19;;;;;;;20.02;9.40;;;;;;;14.86;100.00;101404.47;5054464;28;20035;-63
2022/06/29 01:05:44;;;;;;;20.60;9.43;;;;;;;14.85;100.00;101393.84;5055774;28;20025;-64
2022/06/29 01:08:11;;;;;;;19.90;9.30;;;;;;;14.85;100.00;101389.38;5055633;28;20111;-64
2022/06/29 01:10:37;;;;;;;19.65;9.27;;;;;;;14.82;100.00;101389.41;5055566;28;20103;-64
2022/06/29 01:13:02;;;;;;;20.23;9.50;;;;;;;14.81;100.00;101392.97;5055998;28;20508;-64
2022/06/29 01:15:28;;;;;;;19.52;8.98;;;;;;;14.75;100.00;101392.97;5055354;28;20079;-66
2022/06/29 01:17:53;;;;;;;19.92;9.07;;;;;;;14.77;100.00;101397.41;5055521;28;20357;-65
2022/06/29 01:20:18;;;;;;;20.58;9.65;;;;;;;14.76;100.00;101394.75;5055566;28;20422;-67
2022/06/29 01:22:44;;;;;;;20.13;9.57;;;;;;;14.67;100.00;101392.16;5055441;28;20033;-65
2022/06/29 01:25:09;;;;;;;19.60;9.65;;;;;;;14.65;100.00;101389.50;5055275;28;20028;-65
2022/06/29 01:27:35;;;;;;;20.77;10.15;;;;;;;14.62;100.00;101393.03;5055308;28;20035;-65
2022/06/29 01:30:00;;;;;;;21.13;10.10;;;;;;;14.57;100.00;101394.78;5055155;28;20079;-65
2022/06/29 01:32:26;;;;;;;20.10;9.45;;;;;;;14.56;100.00;101389.47;5055369;28;20029;-67
2022/06/29 01:34:52;;;;;;;20.02;9.90;;;;;;;14.54;100.00;101381.50;5055013;28;20029;-67
2022/06/29 01:37:18;;;;;;;21.05;10.05;;;;;;;14.50;100.00;101386.84;5055356;28;20031;-66
2022/06/29 01:39:43;;;;;;;19.83;10.00;;;;;;;14.51;100.00;101389.50;5055177;28;20108;-67
2022/06/29 01:42:09;;;;;;;19.92;9.95;;;;;;;14.50;100.00;101386.84;5055270;28;20059;-68
2022/06/29 01:44:35;;;;;;;20.35;9.98;;;;;;;14.43;100.00;101381.56;5055114;28;20447;-67
2022/06/29 01:47:02;;;;;;;20.35;10.15;;;;;;;14.40;100.00;101391.28;5055388;28;20027;-64
2022/06/29 01:49:28;;;;;;;21.20;9.98;;;;;;;14.36;100.00;101379.81;5054910;28;20079;-63
2022/06/29 01:51:54;;;;;;;20.90;10.25;;;;;;;14.36;100.00;101381.56;5055102;28;20079;-64
2022/06/29 01:54:19;;;;;;;19.45;10.10;;;;;;;14.29;100.00;101380.69;5055049;28;20033;-64
2022/06/29 01:56:45;;;;;;;20.00;10.13;;;;;;;14.24;100.00;101369.19;5054705;28;20021;-64
2022/06/29 01:59:10;;;;;;;19.88;9.95;;;;;;;14.22;100.00;101374.50;5054639;28;20106;-62
2022/06/29 02:01:35;;;;;;;19.77;10.45;;;;;;;14.22;100.00;101374.50;5054493;28;20028;-62
2022/06/29 02:04:01;;;;;;;21.20;10.43;;;;;;;14.14;100.00;101373.66;5053749;28;20033;-63
2022/06/29 02:06:26;;;;;;;20.55;10.57;;;;;;;14.12;100.00;101359.47;5054369;28;20032;-62
2022/06/29 02:08:52;;;;;;;20.17;10.45;;;;;;;14.08;100.00;101361.25;5054830;28;20419;-62
2022/06/29 02:11:18;;;;;;;20.10;10.52;;;;;;;14.06;100.00;101370.13;5054708;28;20029;-62
2022/06/29 02:13:43;;;;;;;20.05;10.70;;;;;;;14.00;100.00;101371.00;5054323;28;20361;-62
2022/06/29 02:16:09;;;;;;;21.60;10.80;;;;;;;13.93;100.00;101370.13;5054616;28;20399;-62
2022/06/29 02:18:34;;;;;;;20.95;10.80;;;;;;;13.94;100.00;101371.03;5054245;28;20111;-62
2022/06/29 02:21:00;;;;;;;20.63;10.65;;;;;;;13.93;100.00;101379.88;5054167;28;20025;-62
2022/06/29 02:23:25;;;;;;;20.90;10.65;;;;;;;13.99;100.00;101373.66;5054589;28;20028;-62
2022/06/29 02:25:51;;;;;;;21.20;11.18;;;;;;;14.01;100.00;101372.78;5053973;28;20025;-62
2022/06/29 02:28:16;;;;;;;21.17;11.05;;;;;;;14.06;100.00;101367.44;5054430;28;20017;-62
2022/06/29 02:36:09;;;;;;;22.10;11.00;;;;;;;14.19;100.00;101371.84;5054306;28;20083;-63
2022/06/29 02:38:35;;;;;;;20.80;10.63;;;;;;;14.20;100.00;101365.66;5053973;28;20021;-62
2022/06/29 02:41:01;;;;;;;20.35;11.40;;;;;;;14.24;100.00;101366.53;5054027;28;20029;-62
2022/06/29 02:43:26;;;;;;;21.70;11.15;;;;;;;14.20;100.00;101364.75;5053874;28;20021;-62
2022/06/29 02:45:52;;;;;;;20.48;11.40;;;;;;;14.16;100.00;101363.00;5053728;28;20372;-63
2022/06/29 02:48:18;;;;;;;20.67;11.93;;;;;;;14.12;100.00;101359.47;5054031;28;20024;-62
2022/06/29 02:50:43;;;;;;;22.15;11.50;;;;;;;14.06;100.00;101359.47;5053491;28;20487;-63
2022/06/29 02:53:09;;;;;;;22.40;12.13;;;;;;;13.97;100.00;101356.84;5053896;28;20528;-62
2022/06/29 02:55:34;;;;;;;21.27;11.90;;;;;;;13.92;100.00;101352.41;5053943;28;20033;-64
2022/06/29 02:57:59;;;;;;;21.55;11.82;;;;;;;13.84;100.00;101348.88;5053612;28;20060;-62
2022/06/29 03:00:25;;;;;;;21.50;11.70;;;;;;;13.82;100.00;101355.06;5053355;28;20054;-63
2022/06/29 03:02:50;;;;;;;21.48;12.15;;;;;;;13.78;100.00;101348.88;5053456;28;20119;-64
2022/06/29 03:05:15;;;;;;;22.02;12.15;;;;;;;13.72;100.00;101339.16;5053344;28;20086;-62
2022/06/29 03:07:41;;;;;;;20.98;12.00;;;;;;;13.76;100.00;101342.66;5053784;28;20411;-63
2022/06/29 03:10:07;;;;;;;22.05;12.38;;;;;;;13.73;100.00;101340.94;5053627;28;20533;-62
2022/06/29 03:12:32;;;;;;;21.05;12.07;;;;;;;13.72;100.00;101338.28;5053169;28;20430;-62
2022/06/29 03:14:57;;;;;;;21.08;12.95;;;;;;;13.73;100.00;101334.72;5053062;28;20124;-62
2022/06/29 03:17:22;;;;;;;21.58;13.35;;;;;;;13.71;100.00;101329.41;5053203;28;20024;-63
2022/06/29 03:19:48;;;;;;;22.90;12.82;;;;;;;13.69;100.00;101333.84;5053038;28;20064;-64
2022/06/29 03:22:13;;;;;;;21.50;12.95;;;;;;;13.76;100.00;101330.28;5053241;28;20383;-62
2022/06/29 03:24:39;;;;;;;22.70;13.25;;;;;;;13.72;100.00;101325.88;5053273;28;20033;-64
2022/06/29 03:27:04;;;;;;;22.88;13.60;;;;;;;13.68;100.00;101328.53;5052992;28;20099;-67
2022/06/29 03:29:30;;;;;;;21.95;13.27;;;;;;;13.62;100.00;101332.06;5053189;28;20087;-63
2022/06/29 03:31:55;;;;;;;22.83;13.10;;;;;;;13.61;100.00;101327.63;5052831;28;20017;-64
2022/06/29 03:34:20;;;;;;;21.92;13.48;;;;;;;13.55;100.00;101314.38;5052719;28;20041;-64
2022/06/29 03:36:46;;;;;;;21.75;12.85;;;;;;;13.58;100.00;101322.34;5053209;28;20040;-65
2022/06/29 03:39:11;;;;;;;23.35;13.90;;;;;;;13.60;100.00;101312.56;5052877;28;20422;-64
2022/06/29 03:41:36;;;;;;;22.80;13.40;;;;;;;13.58;100.00;101307.28;5053057;28;20021;-63
2022/06/29 03:44:02;;;;;;;22.55;13.80;;;;;;;13.58;100.00;101304.63;5052935;28;20051;-65
2022/06/29 03:46:28;;;;;;;22.20;13.90;;;;;;;13.56;100.00;101313.50;5052774;28;20029;-64
2022/06/29 03:48:53;;;;;;;23.02;14.50;;;;;;;13.50;100.00;101303.75;5052908;28;20021;-64
2022/06/29 03:51:19;;;;;;;22.67;14.43;;;;;;;13.53;100.00;101303.75;5052495;28;20380;-67
2022/06/29 03:53:44;;;;;;;22.40;14.07;;;;;;;13.49;100.00;101304.63;5052726;28;20067;-65
2022/06/29 03:56:09;;;;;;;22.63;14.70;;;;;;;13.41;100.00;101304.63;5052924;28;20025;-65
2022/06/29 03:58:35;;;;;;;22.83;15.00;;;;;;;13.49;100.00;101309.94;5052659;28;20025;-66
2022/06/29 04:01:00;;;;;;;22.25;14.27;;;;;;;13.55;100.00;101299.31;5052498;28;20017;-67
2022/06/29 04:03:25;;;;;;;23.77;14.88;;;;;;;13.58;100.00;101291.34;5052594;28;20076;-67
2022/06/29 04:05:51;;;;;;;22.88;14.32;;;;;;;13.66;100.00;101290.44;5052620;28;20059;-62
2022/06/29 04:08:17;;;;;;;22.20;14.60;;;;;;;13.68;100.00;101297.53;5052679;28;20059;-62
2022/06/29 04:10:42;;;;;;;24.17;15.48;;;;;;;13.65;100.00;101294.88;5052603;28;20032;-62
2022/06/29 04:13:08;;;;;;;23.17;14.70;;;;;;;13.70;100.00;101297.53;5052725;28;20364;-62
2022/06/29 04:15:34;;;;;;;24.83;14.85;;;;;;;13.73;100.00;101292.19;5052314;28;20035;-62
2022/06/29 04:18:00;;;;;;;23.15;14.68;;;;;;;13.75;100.00;101293.09;5052476;28;20028;-62
2022/06/29 04:23:10;;;;;;;24.27;14.95;;;;;;;13.76;100.00;101301.06;5049094;28;20124;-62
2022/06/29 04:25:35;;;;;;;22.48;15.05;;;;;;;13.80;100.00;101296.63;5052958;28;20052;-62
2022/06/29 04:28:00;;;;;;;24.50;15.68;;;;;;;13.84;100.00;101305.47;5056345;28;20036;-62
2022/06/29 04:30:26;;;;;;;24.70;15.45;;;;;;;13.85;100.00;101297.50;5056388;28;20049;-62
2022/06/29 04:32:51;;;;;;;23.73;15.65;;;;;;;13.83;100.00;101295.75;5056708;28;20523;-62
2022/06/29 04:35:16;;;;;;;22.65;15.55;;;;;;;13.88;100.00;101293.97;5056286;28;20029;-62
2022/06/29 04:37:42;;;;;;;22.85;16.13;;;;;;;13.85;100.00;101300.16;5056084;28;20563;-62
2022/06/29 04:40:08;;;;;;;24.08;16.73;;;;;;;13.95;100.00;101298.38;5056361;28;20025;-62
2022/06/29 04:42:33;;;;;;;25.73;16.70;;;;;;;13.95;100.00;101287.75;5056162;28;20108;-62
2022/06/29 04:44:58;;;;;;;23.90;17.02;;;;;;;14.00;100.00;101285.94;5055906;28;20032;-62
2022/06/29 04:47:23;;;;;;;23.77;16.52;;;;;;;14.05;100.00;101297.47;5056381;28;20123;-62
2022/06/29 04:49:49;;;;;;;24.55;17.23;;;;;;;14.11;100.00;101300.09;5055975;28;20045;-62
2022/06/29 04:52:14;;;;;;;27.58;16.88;;;;;;;14.14;100.00;101293.91;5055677;28;20455;-62
2022/06/29 04:54:40;;;;;;;26.42;17.33;;;;;;;14.18;100.00;101295.63;5055967;28;20033;-62
2022/06/29 04:57:09;;;;;;;25.52;17.90;;;;;;;14.22;100.00;101289.41;5055962;28;20025;-62
2022/06/29 04:59:34;;;;;;;25.33;17.65;;;;;;;14.27;100.00;101295.63;5051790;28;20032;-61
2022/06/29 05:01:59;;;;;;;24.23;17.20;;;;;;;14.37;100.00;101290.25;5055835;28;20376;-62
2022/06/29 05:04:25;;;;;;;27.15;17.80;;;;;;;14.44;100.00;101279.56;5055483;28;20032;-61
2022/06/29 05:06:50;;;;;;;26.23;18.50;;;;;;;14.49;100.00;101284.88;5055726;28;20060;-62
2022/06/29 05:09:16;;;;;;;26.05;19.10;;;;;;;14.56;100.00;101286.63;5055598;28;20104;-63
2022/06/29 05:11:41;;;;;;;26.83;18.98;;;;;;;14.64;100.00;101283.94;5055744;28;20037;-62
2022/06/29 05:14:09;;;;;;;26.00;19.33;;;;;;;14.69;100.00;101286.59;5055669;28;20063;-62
2022/06/29 05:16:35;;;;;;;25.52;19.40;;;;;;;14.74;100.00;101279.47;5055582;28;20029;-62
2022/06/29 05:19:01;;;;;;;25.42;18.85;;;;;;;14.84;100.00;101277.63;5055343;28;20029;-62
2022/06/29 05:21:26;;;;;;;25.58;18.83;;;;;;;14.91;100.00;101271.34;5055482;28;20033;-62
2022/06/29 05:23:51;;;;;;;26.15;19.10;;;;;;;15.00;100.00;101279.31;5055333;28;20033;-62
2022/06/29 05:26:16;;;;;;;25.67;18.88;;;;;;;15.07;100.00;101277.47;5055426;28;20033;-62
2022/06/29 05:28:42;;;;;;;25.48;18.35;;;;;;;15.13;100.00;101272.06;5055693;28;20025;-62
2022/06/29 05:31:07;;;;;;;26.33;18.60;;;;;;;15.18;100.00;101280.06;5055258;28;20021;-62
2022/06/29 05:33:39;;;;;;;26.05;18.63;;;;;;;15.29;100.00;101280.81;5055356;28;20478;-62
2022/06/29 05:36:06;;;;;;;26.63;18.63;;;;;;;15.32;100.00;101268.38;5055303;28;20040;-62
2022/06/29 05:38:33;;;;;;;26.20;18.52;;;;;;;15.44;100.00;101272.72;5054868;28;20107;-61
2022/06/29 05:41:00;;;;;;;28.08;19.10;;;;;;;15.50;100.00;101272.66;5054914;28;20021;-62
2022/06/29 05:43:26;;;;;;;25.88;17.80;;;;;;;15.63;100.00;101268.09;5048719;28;20456;-71
2022/06/29 05:45:52;;;;;;;26.13;18.15;;;;;;;15.73;100.00;101268.00;5049839;28;20382;-69
2022/06/29 05:48:17;;;;;;;27.10;17.80;;;;;;;15.81;100.00;101261.75;5052511;28;20108;-69
2022/06/29 05:50:42;;;;;;;26.42;17.05;;;;;;;15.92;100.00;101266.94;5051934;28;20049;-68
2022/06/29 05:53:08;;;;;;;24.65;16.25;;;;;;;16.00;100.00;101266.84;5051616;28;20025;-69
2022/06/29 05:55:33;;;;;;;25.23;15.98;;;;;;;16.12;100.00;101265.81;5051721;28;20033;-71
2022/06/29 05:57:59;;;;;;;25.42;16.15;;;;;;;16.22;100.00;101264.81;5051589;28;20060;-69
2022/06/29 06:00:25;;;;;;;25.30;15.82;;;;;;;16.31;100.00;101271.81;5051845;28;20435;-71
2022/06/29 06:02:51;;;;;;;26.48;16.50;;;;;;;16.41;100.00;101269.91;5050954;28;20021;-75
2022/06/29 06:05:16;;;;;;;25.27;15.30;;;;;;;16.48;100.00;101268.94;5050481;28;20031;-74
2022/06/29 06:07:41;;;;;;;25.88;16.30;;;;;;;16.58;100.00;101267.03;5078575;28;20025;-70
2022/06/29 06:10:07;;;;;;;26.98;17.77;;;;;;;16.69;100.00;101271.31;5050673;28;20060;-68
2022/06/29 06:12:33;;;;;;;24.30;16.13;;;;;;;16.77;100.00;101265.84;5050894;28;20376;-69
2022/06/29 06:14:59;;;;;;;26.48;16.33;;;;;;;16.87;100.00;101271.94;5049415;28;20324;-69
2022/06/29 06:17:26;;;;;;;26.23;14.65;;;;;;;16.97;100.00;101264.72;5046431;28;20028;-69
2022/06/29 06:19:53;;;;;;;23.73;13.35;;;;;;;17.06;100.00;101268.09;5049639;28;20052;-69
2022/06/29 06:22:18;;;;;;;24.30;13.15;;;;;;;17.10;100.00;101263.59;5049308;28;20067;-70
2022/06/29 06:24:43;;;;;;;22.15;11.57;;;;;;;17.21;100.00;101274.09;5053513;28;20049;-71
2022/06/29 06:27:09;;;;;;;21.67;10.13;;;;;;;17.27;100.00;101270.47;5053132;28;20067;-69
2022/06/29 06:29:34;;;;;;;22.00;10.18;;;;;;;17.31;100.00;101272.19;5050766;28;20014;-69
2022/06/29 06:32:01;;;;;;;21.23;9.52;;;;;;;17.36;100.00;101268.53;5052855;28;20104;-71
2022/06/29 06:34:26;;;;;;;21.27;8.73;;;;;;;17.49;100.00;101271.88;5052774;28;20067;-72
2022/06/29 06:36:52;;;;;;;20.90;8.90;;;;;;;17.57;100.00;101264.56;5052537;28;20053;-70
2022/06/29 06:39:17;;;;;;;20.42;8.57;;;;;;;17.69;100.00;101268.84;5052341;28;20503;-69
2022/06/29 06:41:42;;;;;;;20.35;8.65;;;;;;;17.76;100.00;101278.47;5051925;28;20037;-70
2022/06/29 06:44:08;;;;;;;19.65;8.02;;;;;;;17.85;100.00;101271.22;5053089;28;20029;-68
2022/06/29 06:46:34;;;;;;;21.60;8.02;;;;;;;17.93;100.00;101269.31;5052616;28;20028;-67
2022/06/29 06:48:59;;;;;;;18.80;7.57;;;;;;;18.04;100.00;101272.66;5051763;28;20037;-71
2022/06/29 06:51:24;;;;;;;19.88;8.18;;;;;;;18.12;100.00;101270.69;5052694;28;20098;-67
2022/06/29 06:53:50;;;;;;;19.40;7.30;;;;;;;18.15;100.00;101268.88;5052337;28;20039;-69
2022/06/29 06:56:16;;;;;;;19.23;7.43;;;;;;;18.21;100.00;101276.78;5046308;28;20029;-68
2022/06/29 06:58:42;;;;;;;18.83;6.72;;;;;;;18.31;100.00;101275.66;5051244;28;20064;-68
2022/06/29 07:01:09;;;;;;;18.35;6.47;;;;;;;18.42;100.00;101273.66;5052624;28;20029;-69
2022/06/29 07:03:37;;;;;;;18.10;6.80;;;;;;;18.51;100.00;101269.00;5050644;28;20052;-69
2022/06/29 07:06:07;;;;;;;19.08;6.70;;;;;;;18.66;100.00;101268.66;5052401;28;20021;-63
2022/06/29 07:08:34;;;;;;;18.33;6.50;;;;;;;18.82;100.00;101270.06;5052486;28;20063;-68
2022/06/29 07:11:01;;;;;;;18.50;6.82;;;;;;;18.98;100.00;101277.78;5052607;28;20036;-69
2022/06/29 07:13:26;;;;;;;21.42;6.65;;;;;;;19.12;100.00;101269.41;5052350;28;20032;-69
2022/06/29 07:15:52;;;;;;;18.00;6.47;;;;;;;19.22;100.00;101268.28;5052550;28;20450;-68
2022/06/29 07:18:17;;;;;;;19.17;6.40;;;;;;;19.34;100.00;101265.28;5051595;28;20044;-66
2022/06/29 07:20:43;;;;;;;17.55;5.90;;;;;;;19.51;100.00;101264.84;5049790;28;20033;-64
2022/06/29 07:23:08;;;;;;;17.65;5.38;;;;;;;19.63;100.00;101273.47;5052322;28;20029;-64
2022/06/29 07:25:34;;;;;;;16.92;5.22;;;;;;;19.71;100.00;101258.06;5051947;28;20040;-66
2022/06/29 07:27:59;;;;;;;15.85;5.30;;;;;;;19.81;100.00;101264.97;5052590;28;20029;-66
2022/06/29 07:30:25;;;;;;;15.18;4.88;;;;;;;19.96;100.00;101271.69;5053050;28;20032;-65
2022/06/29 07:32:50;;;;;;;15.60;4.80;;;;;;;20.08;100.00;101267.81;5052884;28;20032;-64
2022/06/29 07:35:15;;;;;;;15.65;4.72;;;;;;;20.22;100.00;101263.84;5052952;28;20491;-64
2022/06/29 07:37:42;;;;;;;16.63;5.00;;;;;;;20.37;100.00;101266.06;5047332;28;20483;-72
2022/06/29 07:40:08;;;;;;;17.45;4.90;;;;;;;20.44;99.30;101266.75;5049968;28;20033;-70
2022/06/29 07:42:35;;;;;;;14.23;4.78;;;;;;;20.55;95.57;101254.75;5052144;28;20467;-69
2022/06/29 07:45:01;;;;;;;16.00;4.65;;;;;;;20.62;97.35;101254.56;5050522;28;20048;-65
2022/06/29 07:47:26;;;;;;;14.18;4.80;;;;;;;20.69;95.73;101257.06;5052035;28;20424;-63
2022/06/29 07:49:52;;;;;;;17.02;4.70;;;;;;;20.78;97.91;101253.22;5052023;28;20079;-63
2022/06/29 07:52:17;;;;;;;15.88;4.70;;;;;;;20.90;94.30;101252.81;5051612;28;20526;-63
2022/06/29 07:54:42;;;;;;;15.65;4.68;;;;;;;20.99;93.91;101253.44;5051298;28;20538;-63
2022/06/29 07:57:07;;;;;;;15.93;4.65;;;;;;;21.09;93.59;101254.91;5051856;28;20029;-63
2022/06/29 07:59:33;;;;;;;15.10;4.05;;;;;;;21.17;88.77;101244.78;5051130;28;20021;-63
2022/06/29 08:01:58;;;;;;;15.65;3.90;;;;;;;21.30;82.74;101247.03;5048977;28;20375;-64
2022/06/29 08:04:24;;;;;;;13.55;3.90;;;;;;;21.39;84.92;101250.31;5051502;28;20025;-63
2022/06/29 08:06:49;;;;;;;13.93;4.00;;;;;;;21.53;86.40;101244.47;5049403;28;20467;-63
2022/06/29 08:09:14;;;;;;;11.45;3.50;;;;;;;21.71;80.24;101244.72;5051171;28;20484;-64
2022/06/29 08:11:40;;;;;;;10.80;3.42;;;;;;;21.84;80.15;101248.72;5051608;28;20048;-65
2022/06/29 08:14:05;;;;;;;10.82;3.50;;;;;;;22.04;79.64;101247.13;5050999;28;20080;-65
2022/06/29 08:16:30;;;;;;;13.32;3.60;;;;;;;22.20;79.97;101242.94;5048195;28;20097;-69
2022/06/29 08:18:55;;;;;;;11.57;3.65;;;;;;;22.29;77.43;101239.00;5050370;28;20506;-68
2022/06/29 08:21:21;;;;;;;12.05;3.50;;;;;;;22.46;75.46;101247.34;5051194;28;20528;-67
2022/06/29 08:23:47;;;;;;;10.65;3.33;;;;;;;22.59;77.88;101242.34;5051426;28;20499;-67
2022/06/29 08:26:13;;;;;;;12.38;3.55;;;;;;;22.78;78.51;101242.47;5051117;28;20020;-67
2022/06/29 08:28:38;;;;;;;14.75;3.42;;;;;;;22.87;72.35;101246.63;5051685;28;20377;-67
2022/06/29 08:31:03;;;;;;;14.02;3.50;;;;;;;22.98;74.25;101246.19;5051045;28;20021;-69
2022/06/29 08:33:29;;;;;;;9.88;3.50;;;;;;;23.07;73.18;101237.72;5051629;28;20052;-70
2022/06/29 08:35:54;;;;;;;12.18;3.28;;;;;;;23.17;72.60;101242.75;5049355;28;20021;-67
2022/06/29 08:38:19;;;;;;;9.88;3.08;;;;;;;23.33;72.46;101238.47;5049122;28;20032;-70
2022/06/29 08:40:46;;;;;;;10.45;3.20;;;;;;;23.47;71.43;101235.16;5050535;28;20025;-69
2022/06/29 08:43:16;;;;;;;10.80;3.10;;;;;;;23.61;67.40;101234.56;5050334;28;20127;-67
2022/06/29 08:45:44;;;;;;;9.30;3.20;;;;;;;23.81;67.17;101228.31;5050984;28;20040;-67
2022/06/29 08:48:11;;;;;;;11.23;3.30;;;;;;;23.99;63.69;101230.16;5051388;28;20419;-68
2022/06/29 08:50:41;;;;;;;10.65;3.00;;;;;;;24.29;62.09;101227.00;5050883;28;20055;-68
2022/06/29 08:53:08;;;;;;;10.52;3.10;;;;;;;24.62;63.12;101231.75;5051230;28;20028;-68
2022/06/29 08:55:41;;;;;;;10.30;3.40;;;;;;;24.93;56.64;101224.88;5049343;28;20032;-67
2022/06/29 08:58:06;;;;;;;10.90;3.10;;;;;;;25.21;58.67;101228.88;5050711;28;20429;-65
2022/06/29 09:00:35;;;;;;;10.05;2.80;;;;;;;25.37;57.43;101227.16;5051531;28;20112;-63
2022/06/29 09:03:04;;;;;;;8.82;2.90;;;;;;;25.68;54.50;101232.78;5048179;28;20116;-63
2022/06/29 09:05:29;;;;;;;8.40;2.70;;;;;;;25.91;53.90;101226.16;5050169;28;20471;-63
2022/06/29 09:07:55;;;;;;;9.30;2.90;;;;;;;26.18;45.43;101221.06;5051604;28;20091;-63
2022/06/29 09:10:23;;;;;;;10.63;2.90;;;;;;;26.28;48.22;101224.13;5052283;28;20387;-63
2022/06/29 09:12:52;;;;;;;9.10;2.70;;;;;;;26.39;43.21;101226.25;5054233;28;20021;-63
2022/06/29 09:15:34;;;;;;;10.35;2.88;;;;;;;26.32;47.24;101222.16;5055508;28;20025;-63
2022/06/29 09:18:21;;;;;;;8.85;2.78;;;;;;;26.33;42.45;101219.34;5053135;28;20032;-62
2022/06/29 09:20:46;;;;;;;9.98;2.70;;;;;;;26.44;41.91;101221.44;5055833;28;20513;-63
2022/06/29 09:23:11;;;;;;;9.55;2.80;;;;;;;26.26;45.77;101223.38;5055364;28;20041;-63
2022/06/29 09:25:39;;;;;;;8.43;2.80;;;;;;;26.00;41.62;101230.22;5055230;28;20032;-63
2022/06/29 09:28:19;;;;;;;7.68;2.70;;;;;;;25.96;47.45;101229.47;5055432;28;20064;-63
2022/06/29 09:30:44;;;;;;;7.47;2.90;;;;;;;26.07;44.51;101227.09;5055277;28;20029;-63
2022/06/29 09:33:10;;;;;;;8.70;2.80;;;;;;;26.21;43.81;101217.31;5055124;28;20067;-63
2022/06/29 09:35:37;;;;;;;8.80;2.78;;;;;;;26.28;43.08;101221.44;5054935;28;20028;-63
2022/06/29 09:38:22;;;;;;;9.32;2.83;;;;;;;26.17;43.89;101222.03;5055506;28;20086;-63
2022/06/29 09:41:02;;;;;;;7.93;3.00;;;;;;;26.10;43.30;101218.78;5055199;28;20483;-62
2022/06/29 09:43:29;;;;;;;8.07;2.70;;;;;;;26.37;43.97;101218.22;5051871;28;20032;-63
2022/06/29 09:45:55;;;;;;;21.30;4.10;;;;;;;26.59;45.69;101219.69;5055081;28;20033;-63
2022/06/29 09:48:25;;;;;;;8.55;2.75;;;;;;;26.54;39.65;101217.25;5054881;28;20056;-63
2022/06/29 09:50:52;;;;;;;8.95;2.85;;;;;;;26.62;43.31;101219.53;5054997;28;20092;-63
2022/06/29 09:53:19;;;;;;;9.20;2.67;;;;;;;26.83;41.61;101220.16;5054836;28;20449;-63
2022/06/29 09:55:50;;;;;;;43.33;6.35;;;;;;;27.06;42.12;101215.22;5054758;28;20029;-63
2022/06/29 09:58:23;;;;;;;9.18;2.83;;;;;;;27.02;39.93;101222.66;5053608;28;20391;-63
2022/06/29 10:03:36;;;;;;;8.40;2.70;;;;;;;27.50;40.59;101218.97;5052783;28;20048;-63
2022/06/29 10:06:05;;;;;;;7.70;2.75;;;;;;;27.66;38.78;101212.47;5054849;28;20021;-63
2022/06/29 10:08:32;;;;;;;7.93;2.60;;;;;;;28.28;38.00;101210.47;5054567;28;20029;-63
2022/06/29 10:13:39;;;;;;;8.60;2.95;;;;;;;29.77;34.97;101204.16;5054624;28;20044;-63
2022/06/29 10:13:57;;;;;;;7.43;2.70;;;;;;;32.67;30.49;101218.34;5054458;28;20094;-63
2022/06/29 10:16:40;;;;;;;9.55;2.80;;;;;;;34.77;29.88;101217.47;5050577;28;20178;-63
2022/06/29 10:19:05;;;;;;;11.40;2.90;;;;;;;35.64;26.59;101219.34;5052513;28;20031;-64
2022/06/29 10:21:31;;;;;;;9.70;2.80;;;;;;;36.11;24.39;101216.59;5054195;28;20128;-63
2022/06/29 10:23:58;;;;;;;11.38;2.70;;;;;;;34.54;25.98;101203.97;5053691;28;20276;-64
2022/06/29 10:26:30;;;;;;;10.10;2.90;;;;;;;34.79;28.50;101205.38;5054254;28;20025;-63
2022/06/29 10:29:04;;;;;;;10.55;2.90;;;;;;;36.63;25.77;101198.66;5051005;28;20063;-63
2022/06/29 10:31:51;;;;;;;7.40;2.60;;;;;;;37.05;25.18;101198.06;5051138;28;20423;-63
2022/06/29 10:34:37;;;;;;;16.88;2.83;;;;;;;34.22;26.74;101194.94;5054002;28;20120;-63
2022/06/29 10:37:02;;;;;;;8.20;2.80;;;;;;;32.29;28.84;101192.28;5051580;28;20033;-63
2022/06/29 10:39:51;;;;;;;6.88;2.60;;;;;;;31.98;29.59;101197.50;5053182;28;20043;-63
2022/06/29 10:45:16;;;;;;;6.32;2.60;;;;;;;32.19;30.28;101184.97;5031285;28;20087;-64
2022/06/29 10:47:53;;;;;;;7.53;2.78;;;;;;;32.52;29.92;101181.31;5031462;28;20041;-64
2022/06/29 10:52:44;;;;;;;9.47;2.83;;;;;;;30.30;31.83;101172.13;5031653;28;20107;-63
2022/06/29 10:55:11;;;;;;;7.53;2.60;;;;;;;29.38;32.10;101158.69;5031848;28;20037;-64
2022/06/29 10:57:38;;;;;;;9.70;2.85;;;;;;;29.35;33.82;101171.66;5031715;28;20068;-63
2022/06/29 11:00:09;;;;;;;11.32;2.90;;;;;;;29.44;32.80;101164.72;5014891;28;20065;-64
2022/06/29 11:02:38;;;;;;;8.35;2.70;;;;;;;29.45;33.92;101166.47;5031546;28;20518;-64
2022/06/29 11:05:04;;;;;;;9.88;3.00;;;;;;;29.19;33.22;101164.53;5031627;28;20029;-63
2022/06/29 11:12:58;;;;;;;9.23;2.80;;;;;;;29.24;35.19;101171.53;5031644;28;20119;-63
2022/06/29 11:15:39;;;;;;;11.68;3.10;;;;;;;29.10;34.01;101167.91;5031135;28;20084;-63
2022/06/29 11:18:08;;;;;;;10.07;3.60;;;;;;;29.36;35.01;101167.97;5031457;28;20041;-63
2022/06/29 11:20:34;;;;;;;7.18;2.80;;;;;;;29.77;33.06;101161.44;5053217;28;20641;-63
2022/06/29 11:23:00;;;;;;;11.70;3.15;;;;;;;29.77;36.14;101161.44;5053420;28;20021;-63
2022/06/29 11:25:26;;;;;;;11.82;3.28;;;;;;;29.76;35.76;101154.22;5053500;28;20079;-63
2022/06/29 11:27:52;;;;;;;9.18;2.90;;;;;;;30.08;34.50;101160.09;5053238;28;20021;-63
2022/06/29 11:30:22;;;;;;;11.00;3.13;;;;;;;30.18;32.32;101157.56;5051695;28;20112;-63